sensor_id;sensor_type;location;lat;lon;timestamp;P1;durP1;ratioP1;P2;durP2;ratioP2
9080;SDS011;13509;50.760;6.080;2023-06-01T00:00:59;6.77;;;3.87;;
9080;SDS011;13509;50.760;6.080;2023-06-01T00:03:27;5.87;;;3.30;;
9080;SDS011;13509;50.760;6.080;2023-06-01T00:05:58;5.47;;;3.30;;
9080;SDS011;13509;50.760;6.080;2023-06-01T00:08:26;5.87;;;3.07;;
9080;SDS011;13509;50.760;6.080;2023-06-01T00:10:54;5.70;;;3.47;;
9080;SDS011;13509;50.760;6.080;2023-06-01T00:13:22;8.27;;;4.20;;
9080;SDS011;13509;50.760;6.080;2023-06-01T00:15:50;6.13;;;3.70;;
9080;SDS011;13509;50.760;6.080;2023-06-01T00:18:18;7.30;;;3.93;;
9080;SDS011;13509;50.760;6.080;2023-06-01T00:20:46;9.33;;;4.17;;
9080;SDS011;13509;50.760;6.080;2023-06-01T00:23:15;5.93;;;3.63;;
9080;SDS011;13509;50.760;6.080;2023-06-01T00:25:46;8.00;;;4.00;;
9080;SDS011;13509;50.760;6.080;2023-06-01T00:28:14;7.97;;;3.93;;
9080;SDS011;13509;50.760;6.080;2023-06-01T00:30:41;8.57;;;4.20;;
9080;SDS011;13509;50.760;6.080;2023-06-01T00:33:09;12.23;;;4.10;;
9080;SDS011;13509;50.760;6.080;2023-06-01T00:35:37;7.17;;;3.87;;
9080;SDS011;13509;50.760;6.080;2023-06-01T00:38:05;12.87;;;4.30;;
9080;SDS011;13509;50.760;6.080;2023-06-01T00:40:34;10.03;;;4.40;;
9080;SDS011;13509;50.760;6.080;2023-06-01T00:43:02;9.23;;;4.70;;
9080;SDS011;13509;50.760;6.080;2023-06-01T00:45:30;13.77;;;4.43;;
9080;SDS011;13509;50.760;6.080;2023-06-01T00:47:58;6.87;;;3.97;;
9080;SDS011;13509;50.760;6.080;2023-06-01T00:50:26;5.93;;;3.57;;
9080;SDS011;13509;50.760;6.080;2023-06-01T00:52:55;9.87;;;4.07;;
9080;SDS011;13509;50.760;6.080;2023-06-01T00:55:24;9.33;;;3.83;;
9080;SDS011;13509;50.760;6.080;2023-06-01T00:57:55;10.30;;;5.00;;
9080;SDS011;13509;50.760;6.080;2023-06-01T01:00:23;5.80;;;3.90;;
9080;SDS011;13509;50.760;6.080;2023-06-01T01:02:53;8.13;;;4.17;;
9080;SDS011;13509;50.760;6.080;2023-06-01T01:05:23;8.50;;;4.37;;
9080;SDS011;13509;50.760;6.080;2023-06-01T01:07:54;12.13;;;4.80;;
9080;SDS011;13509;50.760;6.080;2023-06-01T01:10:26;10.20;;;4.83;;
9080;SDS011;13509;50.760;6.080;2023-06-01T01:13:01;8.73;;;4.43;;
9080;SDS011;13509;50.760;6.080;2023-06-01T01:15:32;11.17;;;4.57;;
9080;SDS011;13509;50.760;6.080;2023-06-01T01:18:03;7.47;;;4.50;;
9080;SDS011;13509;50.760;6.080;2023-06-01T01:20:34;7.13;;;4.57;;
9080;SDS011;13509;50.760;6.080;2023-06-01T01:23:10;8.00;;;4.87;;
9080;SDS011;13509;50.760;6.080;2023-06-01T01:25:52;9.00;;;5.00;;
9080;SDS011;13509;50.760;6.080;2023-06-01T01:28:32;7.83;;;4.27;;
9080;SDS011;13509;50.760;6.080;2023-06-01T01:31:01;10.00;;;4.87;;
9080;SDS011;13509;50.760;6.080;2023-06-01T01:33:31;8.50;;;4.53;;
9080;SDS011;13509;50.760;6.080;2023-06-01T01:36:00;7.83;;;4.77;;
9080;SDS011;13509;50.760;6.080;2023-06-01T01:38:29;10.57;;;5.10;;
9080;SDS011;13509;50.760;6.080;2023-06-01T01:40:57;8.40;;;4.50;;
9080;SDS011;13509;50.760;6.080;2023-06-01T01:43:26;7.10;;;4.83;;
9080;SDS011;13509;50.760;6.080;2023-06-01T01:45:57;9.90;;;4.40;;
9080;SDS011;13509;50.760;6.080;2023-06-01T01:48:28;7.00;;;4.67;;
9080;SDS011;13509;50.760;6.080;2023-06-01T01:51:01;11.53;;;5.67;;
9080;SDS011;13509;50.760;6.080;2023-06-01T01:53:31;9.37;;;5.80;;
9080;SDS011;13509;50.760;6.080;2023-06-01T01:55:59;8.30;;;4.90;;
9080;SDS011;13509;50.760;6.080;2023-06-01T01:58:27;9.40;;;5.83;;
9080;SDS011;13509;50.760;6.080;2023-06-01T02:00:58;11.53;;;5.80;;
9080;SDS011;13509;50.760;6.080;2023-06-01T02:03:27;12.43;;;5.47;;
9080;SDS011;13509;50.760;6.080;2023-06-01T02:05:56;6.90;;;4.50;;
9080;SDS011;13509;50.760;6.080;2023-06-01T02:08:24;6.93;;;4.73;;
9080;SDS011;13509;50.760;6.080;2023-06-01T02:10:52;11.30;;;4.90;;
9080;SDS011;13509;50.760;6.080;2023-06-01T02:13:21;8.63;;;5.43;;
9080;SDS011;13509;50.760;6.080;2023-06-01T02:15:49;10.23;;;5.33;;
9080;SDS011;13509;50.760;6.080;2023-06-01T02:18:19;10.37;;;6.00;;
9080;SDS011;13509;50.760;6.080;2023-06-01T02:20:47;10.37;;;6.00;;
9080;SDS011;13509;50.760;6.080;2023-06-01T02:23:15;15.07;;;6.30;;
9080;SDS011;13509;50.760;6.080;2023-06-01T02:25:43;14.73;;;6.73;;
9080;SDS011;13509;50.760;6.080;2023-06-01T02:28:12;19.73;;;6.93;;
9080;SDS011;13509;50.760;6.080;2023-06-01T02:30:40;17.27;;;6.77;;
9080;SDS011;13509;50.760;6.080;2023-06-01T02:33:08;13.27;;;6.83;;
9080;SDS011;13509;50.760;6.080;2023-06-01T02:35:38;13.17;;;7.33;;
9080;SDS011;13509;50.760;6.080;2023-06-01T02:38:07;13.93;;;7.97;;
9080;SDS011;13509;50.760;6.080;2023-06-01T02:40:35;17.57;;;8.37;;
9080;SDS011;13509;50.760;6.080;2023-06-01T02:43:04;15.43;;;8.17;;
9080;SDS011;13509;50.760;6.080;2023-06-01T02:45:32;14.70;;;8.07;;
9080;SDS011;13509;50.760;6.080;2023-06-01T02:48:00;16.43;;;7.83;;
9080;SDS011;13509;50.760;6.080;2023-06-01T02:50:29;18.30;;;8.00;;
9080;SDS011;13509;50.760;6.080;2023-06-01T02:52:58;16.93;;;8.67;;
9080;SDS011;13509;50.760;6.080;2023-06-01T02:55:27;14.07;;;8.40;;
9080;SDS011;13509;50.760;6.080;2023-06-01T02:57:55;13.03;;;7.83;;
9080;SDS011;13509;50.760;6.080;2023-06-01T03:00:24;19.93;;;8.80;;
9080;SDS011;13509;50.760;6.080;2023-06-01T03:02:53;14.47;;;8.53;;
9080;SDS011;13509;50.760;6.080;2023-06-01T03:05:22;14.83;;;8.83;;
9080;SDS011;13509;50.760;6.080;2023-06-01T03:07:50;19.53;;;9.33;;
9080;SDS011;13509;50.760;6.080;2023-06-01T03:10:20;20.13;;;8.83;;
9080;SDS011;13509;50.760;6.080;2023-06-01T03:12:48;18.33;;;9.03;;
9080;SDS011;13509;50.760;6.080;2023-06-01T03:15:16;17.27;;;9.00;;
9080;SDS011;13509;50.760;6.080;2023-06-01T03:17:44;20.43;;;8.97;;
9080;SDS011;13509;50.760;6.080;2023-06-01T03:20:13;15.83;;;10.00;;
9080;SDS011;13509;50.760;6.080;2023-06-01T03:22:41;16.20;;;9.70;;
9080;SDS011;13509;50.760;6.080;2023-06-01T03:25:10;21.13;;;9.23;;
9080;SDS011;13509;50.760;6.080;2023-06-01T03:27:40;17.93;;;9.50;;
9080;SDS011;13509;50.760;6.080;2023-06-01T03:30:09;16.47;;;9.30;;
9080;SDS011;13509;50.760;6.080;2023-06-01T03:32:37;20.27;;;10.90;;
9080;SDS011;13509;50.760;6.080;2023-06-01T03:35:06;17.80;;;10.43;;
9080;SDS011;13509;50.760;6.080;2023-06-01T03:37:35;16.77;;;9.67;;
9080;SDS011;13509;50.760;6.080;2023-06-01T03:40:04;17.13;;;9.57;;
9080;SDS011;13509;50.760;6.080;2023-06-01T03:42:36;18.43;;;10.83;;
9080;SDS011;13509;50.760;6.080;2023-06-01T03:45:06;18.47;;;10.03;;
9080;SDS011;13509;50.760;6.080;2023-06-01T03:47:35;18.47;;;10.93;;
9080;SDS011;13509;50.760;6.080;2023-06-01T03:50:04;15.93;;;10.07;;
9080;SDS011;13509;50.760;6.080;2023-06-01T03:52:33;24.43;;;11.53;;
9080;SDS011;13509;50.760;6.080;2023-06-01T03:55:02;21.37;;;11.27;;
9080;SDS011;13509;50.760;6.080;2023-06-01T03:57:34;19.93;;;11.13;;
9080;SDS011;13509;50.760;6.080;2023-06-01T04:00:03;23.23;;;11.33;;
9080;SDS011;13509;50.760;6.080;2023-06-01T04:02:47;20.27;;;10.83;;
9080;SDS011;13509;50.760;6.080;2023-06-01T04:05:17;15.87;;;10.87;;
9080;SDS011;13509;50.760;6.080;2023-06-01T04:07:46;16.13;;;10.87;;
9080;SDS011;13509;50.760;6.080;2023-06-01T04:10:15;20.77;;;9.30;;
9080;SDS011;13509;50.760;6.080;2023-06-01T04:12:43;18.93;;;10.77;;
9080;SDS011;13509;50.760;6.080;2023-06-01T04:15:13;18.53;;;11.10;;
9080;SDS011;13509;50.760;6.080;2023-06-01T04:17:41;15.10;;;9.97;;
9080;SDS011;13509;50.760;6.080;2023-06-01T04:20:12;15.30;;;9.60;;
9080;SDS011;13509;50.760;6.080;2023-06-01T04:22:40;16.00;;;10.67;;
9080;SDS011;13509;50.760;6.080;2023-06-01T04:25:09;21.83;;;10.23;;
9080;SDS011;13509;50.760;6.080;2023-06-01T04:27:42;17.40;;;9.17;;
9080;SDS011;13509;50.760;6.080;2023-06-01T04:30:11;16.60;;;9.70;;
9080;SDS011;13509;50.760;6.080;2023-06-01T04:32:41;14.80;;;9.90;;
9080;SDS011;13509;50.760;6.080;2023-06-01T04:35:12;15.67;;;9.87;;
9080;SDS011;13509;50.760;6.080;2023-06-01T04:37:41;19.60;;;10.90;;
9080;SDS011;13509;50.760;6.080;2023-06-01T04:40:09;17.20;;;11.10;;
9080;SDS011;13509;50.760;6.080;2023-06-01T04:42:40;20.83;;;11.63;;
9080;SDS011;13509;50.760;6.080;2023-06-01T04:45:09;22.73;;;11.57;;
9080;SDS011;13509;50.760;6.080;2023-06-01T04:47:38;21.20;;;12.17;;
9080;SDS011;13509;50.760;6.080;2023-06-01T04:50:07;20.53;;;12.47;;
9080;SDS011;13509;50.760;6.080;2023-06-01T04:52:37;22.50;;;12.70;;
9080;SDS011;13509;50.760;6.080;2023-06-01T04:55:06;23.20;;;14.47;;
9080;SDS011;13509;50.760;6.080;2023-06-01T04:57:35;32.37;;;18.00;;
9080;SDS011;13509;50.760;6.080;2023-06-01T05:00:05;39.83;;;20.90;;
9080;SDS011;13509;50.760;6.080;2023-06-01T05:02:36;40.53;;;20.77;;
9080;SDS011;13509;50.760;6.080;2023-06-01T05:05:05;46.80;;;24.97;;
9080;SDS011;13509;50.760;6.080;2023-06-01T05:07:33;48.83;;;24.73;;
9080;SDS011;13509;50.760;6.080;2023-06-01T05:10:04;48.30;;;27.20;;
9080;SDS011;13509;50.760;6.080;2023-06-01T05:12:33;50.40;;;25.73;;
9080;SDS011;13509;50.760;6.080;2023-06-01T05:15:02;51.67;;;25.57;;
9080;SDS011;13509;50.760;6.080;2023-06-01T05:17:30;54.53;;;25.20;;
9080;SDS011;13509;50.760;6.080;2023-06-01T05:19:59;55.30;;;28.10;;
9080;SDS011;13509;50.760;6.080;2023-06-01T05:22:27;53.47;;;27.87;;
9080;SDS011;13509;50.760;6.080;2023-06-01T05:24:55;53.03;;;28.00;;
9080;SDS011;13509;50.760;6.080;2023-06-01T05:27:25;58.67;;;30.10;;
9080;SDS011;13509;50.760;6.080;2023-06-01T05:29:53;48.47;;;27.47;;
9080;SDS011;13509;50.760;6.080;2023-06-01T05:32:22;60.73;;;32.27;;
9080;SDS011;13509;50.760;6.080;2023-06-01T05:34:50;56.87;;;32.03;;
9080;SDS011;13509;50.760;6.080;2023-06-01T05:37:18;66.17;;;34.90;;
9080;SDS011;13509;50.760;6.080;2023-06-01T05:39:47;73.17;;;37.63;;
9080;SDS011;13509;50.760;6.080;2023-06-01T05:42:15;67.20;;;37.90;;
9080;SDS011;13509;50.760;6.080;2023-06-01T05:44:45;67.00;;;36.67;;
9080;SDS011;13509;50.760;6.080;2023-06-01T05:47:13;68.77;;;38.60;;
9080;SDS011;13509;50.760;6.080;2023-06-01T05:49:41;70.23;;;36.50;;
9080;SDS011;13509;50.760;6.080;2023-06-01T05:52:09;70.17;;;36.77;;
9080;SDS011;13509;50.760;6.080;2023-06-01T05:54:40;69.27;;;35.43;;
9080;SDS011;13509;50.760;6.080;2023-06-01T05:57:08;77.73;;;38.30;;
9080;SDS011;13509;50.760;6.080;2023-06-01T05:59:36;141.27;;;40.33;;
9080;SDS011;13509;50.760;6.080;2023-06-01T06:02:06;156.77;;;40.90;;
9080;SDS011;13509;50.760;6.080;2023-06-01T06:04:35;97.90;;;38.17;;
9080;SDS011;13509;50.760;6.080;2023-06-01T06:07:03;142.13;;;42.27;;
9080;SDS011;13509;50.760;6.080;2023-06-01T06:09:31;298.43;;;50.30;;
9080;SDS011;13509;50.760;6.080;2023-06-01T06:12:00;86.13;;;38.37;;
9080;SDS011;13509;50.760;6.080;2023-06-01T06:14:28;178.00;;;43.30;;
9080;SDS011;13509;50.760;6.080;2023-06-01T06:16:57;129.93;;;41.07;;
9080;SDS011;13509;50.760;6.080;2023-06-01T06:19:27;627.60;;;109.70;;
9080;SDS011;13509;50.760;6.080;2023-06-01T06:21:56;73.67;;;38.37;;
9080;SDS011;13509;50.760;6.080;2023-06-01T06:24:24;75.07;;;38.83;;
9080;SDS011;13509;50.760;6.080;2023-06-01T06:26:52;129.47;;;44.50;;
9080;SDS011;13509;50.760;6.080;2023-06-01T06:29:21;532.00;;;91.10;;
9080;SDS011;13509;50.760;6.080;2023-06-01T06:31:49;77.97;;;39.73;;
9080;SDS011;13509;50.760;6.080;2023-06-01T06:34:18;77.80;;;38.10;;
9080;SDS011;13509;50.760;6.080;2023-06-01T06:36:47;248.33;;;50.17;;
9080;SDS011;13509;50.760;6.080;2023-06-01T06:39:15;417.57;;;67.80;;
9080;SDS011;13509;50.760;6.080;2023-06-01T06:41:44;81.03;;;36.97;;
9080;SDS011;13509;50.760;6.080;2023-06-01T06:44:12;432.77;;;63.83;;
9080;SDS011;13509;50.760;6.080;2023-06-01T06:46:40;98.03;;;38.77;;
9080;SDS011;13509;50.760;6.080;2023-06-01T06:49:08;114.70;;;38.60;;
9080;SDS011;13509;50.760;6.080;2023-06-01T06:51:37;97.67;;;39.10;;
9080;SDS011;13509;50.760;6.080;2023-06-01T06:54:06;73.73;;;38.53;;
9080;SDS011;13509;50.760;6.080;2023-06-01T06:56:35;79.33;;;36.87;;
9080;SDS011;13509;50.760;6.080;2023-06-01T06:59:03;171.07;;;44.73;;
9080;SDS011;13509;50.760;6.080;2023-06-01T07:01:33;584.47;;;80.47;;
9080;SDS011;13509;50.760;6.080;2023-06-01T07:04:06;255.43;;;48.20;;
9080;SDS011;13509;50.760;6.080;2023-06-01T07:06:36;71.50;;;37.67;;
9080;SDS011;13509;50.760;6.080;2023-06-01T07:09:04;78.90;;;38.90;;
9080;SDS011;13509;50.760;6.080;2023-06-01T07:11:36;77.33;;;38.77;;
9080;SDS011;13509;50.760;6.080;2023-06-01T07:14:04;71.00;;;35.47;;
9080;SDS011;13509;50.760;6.080;2023-06-01T07:16:32;70.53;;;37.50;;
9080;SDS011;13509;50.760;6.080;2023-06-01T07:19:01;77.73;;;38.13;;
9080;SDS011;13509;50.760;6.080;2023-06-01T07:21:29;84.30;;;39.50;;
9080;SDS011;13509;50.760;6.080;2023-06-01T07:23:57;361.13;;;53.03;;
9080;SDS011;13509;50.760;6.080;2023-06-01T07:26:26;90.87;;;37.50;;
9080;SDS011;13509;50.760;6.080;2023-06-01T07:28:57;217.97;;;47.90;;
9080;SDS011;13509;50.760;6.080;2023-06-01T07:31:26;121.50;;;41.03;;
9080;SDS011;13509;50.760;6.080;2023-06-01T07:33:54;83.13;;;38.27;;
9080;SDS011;13509;50.760;6.080;2023-06-01T07:36:23;81.67;;;37.57;;
9080;SDS011;13509;50.760;6.080;2023-06-01T07:38:52;78.13;;;37.10;;
9080;SDS011;13509;50.760;6.080;2023-06-01T07:41:21;76.90;;;37.03;;
9080;SDS011;13509;50.760;6.080;2023-06-01T07:43:49;80.17;;;39.43;;
9080;SDS011;13509;50.760;6.080;2023-06-01T07:46:19;74.40;;;38.77;;
9080;SDS011;13509;50.760;6.080;2023-06-01T07:48:48;80.80;;;38.00;;
9080;SDS011;13509;50.760;6.080;2023-06-01T07:51:16;81.07;;;38.60;;
9080;SDS011;13509;50.760;6.080;2023-06-01T07:53:45;75.27;;;37.07;;
9080;SDS011;13509;50.760;6.080;2023-06-01T07:56:13;75.60;;;35.03;;
9080;SDS011;13509;50.760;6.080;2023-06-01T07:58:41;122.37;;;39.50;;
9080;SDS011;13509;50.760;6.080;2023-06-01T08:01:11;267.87;;;49.33;;
9080;SDS011;13509;50.760;6.080;2023-06-01T08:03:43;170.47;;;44.30;;
9080;SDS011;13509;50.760;6.080;2023-06-01T08:06:11;75.87;;;36.97;;
9080;SDS011;13509;50.760;6.080;2023-06-01T08:08:40;87.37;;;37.23;;
9080;SDS011;13509;50.760;6.080;2023-06-01T08:11:08;80.40;;;34.10;;
9080;SDS011;13509;50.760;6.080;2023-06-01T08:13:36;61.17;;;32.43;;
9080;SDS011;13509;50.760;6.080;2023-06-01T08:16:05;57.20;;;31.63;;
9080;SDS011;13509;50.760;6.080;2023-06-01T08:18:33;56.57;;;29.50;;
9080;SDS011;13509;50.760;6.080;2023-06-01T08:21:03;56.17;;;29.93;;
9080;SDS011;13509;50.760;6.080;2023-06-01T08:23:31;57.00;;;28.37;;
9080;SDS011;13509;50.760;6.080;2023-06-01T08:26:00;47.13;;;26.87;;
9080;SDS011;13509;50.760;6.080;2023-06-01T08:28:29;46.63;;;25.60;;
9080;SDS011;13509;50.760;6.080;2023-06-01T08:30:58;48.43;;;26.90;;
9080;SDS011;13509;50.760;6.080;2023-06-01T08:33:27;44.83;;;27.43;;
9080;SDS011;13509;50.760;6.080;2023-06-01T08:35:55;45.97;;;26.57;;
9080;SDS011;13509;50.760;6.080;2023-06-01T08:38:25;46.03;;;26.80;;
9080;SDS011;13509;50.760;6.080;2023-06-01T08:40:58;45.43;;;25.40;;
9080;SDS011;13509;50.760;6.080;2023-06-01T08:43:28;40.23;;;23.90;;
9080;SDS011;13509;50.760;6.080;2023-06-01T08:45:58;44.13;;;24.87;;
9080;SDS011;13509;50.760;6.080;2023-06-01T08:48:27;49.27;;;25.13;;
9080;SDS011;13509;50.760;6.080;2023-06-01T08:50:56;45.20;;;25.60;;
9080;SDS011;13509;50.760;6.080;2023-06-01T08:53:25;44.70;;;25.37;;
9080;SDS011;13509;50.760;6.080;2023-06-01T08:55:56;39.37;;;24.23;;
9080;SDS011;13509;50.760;6.080;2023-06-01T08:58:24;42.13;;;24.40;;
9080;SDS011;13509;50.760;6.080;2023-06-01T09:00:53;40.17;;;22.13;;
9080;SDS011;13509;50.760;6.080;2023-06-01T09:03:22;39.23;;;20.87;;
9080;SDS011;13509;50.760;6.080;2023-06-01T09:05:51;36.37;;;22.00;;
9080;SDS011;13509;50.760;6.080;2023-06-01T09:08:19;33.43;;;20.27;;
9080;SDS011;13509;50.760;6.080;2023-06-01T09:10:50;38.17;;;21.43;;
9080;SDS011;13509;50.760;6.080;2023-06-01T09:13:30;32.67;;;20.57;;
9080;SDS011;13509;50.760;6.080;2023-06-01T09:15:58;32.83;;;20.67;;
9080;SDS011;13509;50.760;6.080;2023-06-01T09:18:28;32.83;;;19.10;;
9080;SDS011;13509;50.760;6.080;2023-06-01T09:20:59;25.03;;;17.07;;
9080;SDS011;13509;50.760;6.080;2023-06-01T09:23:37;24.87;;;16.30;;
9080;SDS011;13509;50.760;6.080;2023-06-01T09:26:07;24.43;;;17.03;;
9080;SDS011;13509;50.760;6.080;2023-06-01T09:31:34;22.33;;;15.27;;
9080;SDS011;13509;50.760;6.080;2023-06-01T09:34:03;22.63;;;15.07;;
9080;SDS011;13509;50.760;6.080;2023-06-01T09:36:32;21.93;;;14.60;;
9080;SDS011;13509;50.760;6.080;2023-06-01T09:39:02;23.07;;;15.07;;
9080;SDS011;13509;50.760;6.080;2023-06-01T09:41:45;18.40;;;14.37;;
9080;SDS011;13509;50.760;6.080;2023-06-01T09:44:14;15.73;;;13.33;;
9080;SDS011;13509;50.760;6.080;2023-06-01T09:46:50;17.00;;;13.20;;
9080;SDS011;13509;50.760;6.080;2023-06-01T09:49:19;17.80;;;12.87;;
9080;SDS011;13509;50.760;6.080;2023-06-01T09:51:48;16.23;;;13.00;;
9080;SDS011;13509;50.760;6.080;2023-06-01T09:54:23;15.43;;;11.20;;
9080;SDS011;13509;50.760;6.080;2023-06-01T09:56:53;16.47;;;13.13;;
9080;SDS011;13509;50.760;6.080;2023-06-01T09:59:38;17.60;;;12.93;;
9080;SDS011;13509;50.760;6.080;2023-06-01T10:02:06;14.23;;;11.07;;
9080;SDS011;13509;50.760;6.080;2023-06-01T10:04:36;17.17;;;13.03;;
9080;SDS011;13509;50.760;6.080;2023-06-01T10:07:06;12.20;;;10.90;;
9080;SDS011;13509;50.760;6.080;2023-06-01T10:09:37;103.93;;;17.50;;
9080;SDS011;13509;50.760;6.080;2023-06-01T10:12:08;57.67;;;14.23;;
9080;SDS011;13509;50.760;6.080;2023-06-01T10:14:36;15.53;;;12.43;;
9080;SDS011;13509;50.760;6.080;2023-06-01T10:17:05;18.87;;;12.60;;
9080;SDS011;13509;50.760;6.080;2023-06-01T10:19:35;804.13;;;70.13;;
9080;SDS011;13509;50.760;6.080;2023-06-01T10:22:04;45.17;;;12.63;;
9080;SDS011;13509;50.760;6.080;2023-06-01T10:24:34;31.10;;;12.70;;
9080;SDS011;13509;50.760;6.080;2023-06-01T10:27:10;31.63;;;12.93;;
9080;SDS011;13509;50.760;6.080;2023-06-01T10:29:40;68.53;;;14.67;;
9080;SDS011;13509;50.760;6.080;2023-06-01T10:34:53;94.20;;;15.40;;
9080;SDS011;13509;50.760;6.080;2023-06-01T10:37:21;80.87;;;14.63;;
9080;SDS011;13509;50.760;6.080;2023-06-01T10:39:49;132.80;;;17.30;;
9080;SDS011;13509;50.760;6.080;2023-06-01T10:48:05;15.97;;;10.67;;
9080;SDS011;13509;50.760;6.080;2023-06-01T10:50:34;20.73;;;11.30;;
9080;SDS011;13509;50.760;6.080;2023-06-01T10:56:02;15.77;;;10.90;;
9080;SDS011;13509;50.760;6.080;2023-06-01T10:58:46;14.10;;;10.47;;
9080;SDS011;13509;50.760;6.080;2023-06-01T11:01:18;14.87;;;10.73;;
9080;SDS011;13509;50.760;6.080;2023-06-01T11:03:48;15.87;;;10.80;;
9080;SDS011;13509;50.760;6.080;2023-06-01T11:06:24;15.40;;;9.97;;
9080;SDS011;13509;50.760;6.080;2023-06-01T11:08:57;15.97;;;9.63;;
9080;SDS011;13509;50.760;6.080;2023-06-01T11:14:14;13.43;;;10.07;;
9080;SDS011;13509;50.760;6.080;2023-06-01T11:16:43;17.63;;;9.97;;
9080;SDS011;13509;50.760;6.080;2023-06-01T11:19:17;14.53;;;9.80;;
9080;SDS011;13509;50.760;6.080;2023-06-01T11:21:47;14.50;;;10.70;;
9080;SDS011;13509;50.760;6.080;2023-06-01T11:24:18;16.00;;;9.77;;
9080;SDS011;13509;50.760;6.080;2023-06-01T11:26:48;14.30;;;9.57;;
9080;SDS011;13509;50.760;6.080;2023-06-01T11:29:18;16.57;;;8.80;;
9080;SDS011;13509;50.760;6.080;2023-06-01T11:31:47;16.97;;;9.60;;
9080;SDS011;13509;50.760;6.080;2023-06-01T11:34:16;19.30;;;9.87;;
9080;SDS011;13509;50.760;6.080;2023-06-01T11:36:47;15.57;;;9.40;;
9080;SDS011;13509;50.760;6.080;2023-06-01T11:39:15;13.60;;;9.80;;
9080;SDS011;13509;50.760;6.080;2023-06-01T11:41:49;13.90;;;9.23;;
9080;SDS011;13509;50.760;6.080;2023-06-01T11:44:18;15.63;;;8.33;;
9080;SDS011;13509;50.760;6.080;2023-06-01T11:46:49;12.90;;;8.23;;
9080;SDS011;13509;50.760;6.080;2023-06-01T11:49:18;15.87;;;8.90;;
9080;SDS011;13509;50.760;6.080;2023-06-01T11:51:49;9.87;;;7.13;;
9080;SDS011;13509;50.760;6.080;2023-06-01T11:54:22;11.20;;;8.33;;
9080;SDS011;13509;50.760;6.080;2023-06-01T11:56:50;11.90;;;7.37;;
9080;SDS011;13509;50.760;6.080;2023-06-01T11:59:23;12.07;;;7.70;;
9080;SDS011;13509;50.760;6.080;2023-06-01T12:01:51;12.00;;;7.27;;
9080;SDS011;13509;50.760;6.080;2023-06-01T12:04:21;13.63;;;8.20;;
9080;SDS011;13509;50.760;6.080;2023-06-01T12:06:51;17.90;;;7.80;;
9080;SDS011;13509;50.760;6.080;2023-06-01T12:09:19;12.57;;;8.30;;
9080;SDS011;13509;50.760;6.080;2023-06-01T12:11:48;13.33;;;8.97;;
9080;SDS011;13509;50.760;6.080;2023-06-01T12:14:16;15.73;;;9.10;;
9080;SDS011;13509;50.760;6.080;2023-06-01T12:16:52;14.33;;;9.73;;
9080;SDS011;13509;50.760;6.080;2023-06-01T12:19:20;16.03;;;9.67;;
9080;SDS011;13509;50.760;6.080;2023-06-01T12:21:50;11.60;;;9.00;;
9080;SDS011;13509;50.760;6.080;2023-06-01T12:24:25;20.03;;;9.60;;
9080;SDS011;13509;50.760;6.080;2023-06-01T12:26:55;13.60;;;8.80;;
9080;SDS011;13509;50.760;6.080;2023-06-01T12:29:33;12.87;;;7.77;;
9080;SDS011;13509;50.760;6.080;2023-06-01T12:32:02;17.63;;;9.03;;
9080;SDS011;13509;50.760;6.080;2023-06-01T12:34:30;16.70;;;9.63;;
9080;SDS011;13509;50.760;6.080;2023-06-01T12:37:09;15.37;;;9.53;;
9080;SDS011;13509;50.760;6.080;2023-06-01T12:39:38;14.13;;;8.73;;
9080;SDS011;13509;50.760;6.080;2023-06-01T12:42:08;13.23;;;9.37;;
9080;SDS011;13509;50.760;6.080;2023-06-01T12:44:37;13.37;;;9.13;;
9080;SDS011;13509;50.760;6.080;2023-06-01T12:47:08;14.90;;;10.20;;
9080;SDS011;13509;50.760;6.080;2023-06-01T12:49:36;14.50;;;10.10;;
9080;SDS011;13509;50.760;6.080;2023-06-01T12:52:07;19.70;;;11.37;;
9080;SDS011;13509;50.760;6.080;2023-06-01T12:54:36;18.23;;;10.37;;
9080;SDS011;13509;50.760;6.080;2023-06-01T12:57:11;14.23;;;10.63;;
9080;SDS011;13509;50.760;6.080;2023-06-01T12:59:40;17.73;;;10.80;;
9080;SDS011;13509;50.760;6.080;2023-06-01T13:02:09;17.13;;;10.80;;
9080;SDS011;13509;50.760;6.080;2023-06-01T13:04:41;16.10;;;9.93;;
9080;SDS011;13509;50.760;6.080;2023-06-01T13:07:11;14.83;;;9.80;;
9080;SDS011;13509;50.760;6.080;2023-06-01T13:09:40;15.47;;;9.80;;
9080;SDS011;13509;50.760;6.080;2023-06-01T13:12:08;15.97;;;8.53;;
9080;SDS011;13509;50.760;6.080;2023-06-01T13:14:37;15.83;;;9.83;;
9080;SDS011;13509;50.760;6.080;2023-06-01T13:17:05;12.70;;;8.40;;
9080;SDS011;13509;50.760;6.080;2023-06-01T13:19:33;12.47;;;7.37;;
9080;SDS011;13509;50.760;6.080;2023-06-01T13:22:02;17.33;;;9.47;;
9080;SDS011;13509;50.760;6.080;2023-06-01T13:24:32;11.07;;;7.57;;
9080;SDS011;13509;50.760;6.080;2023-06-01T13:27:18;17.07;;;8.80;;
9080;SDS011;13509;50.760;6.080;2023-06-01T13:29:47;11.57;;;7.57;;
9080;SDS011;13509;50.760;6.080;2023-06-01T13:32:15;13.63;;;7.30;;
9080;SDS011;13509;50.760;6.080;2023-06-01T13:34:44;15.97;;;8.43;;
9080;SDS011;13509;50.760;6.080;2023-06-01T13:37:12;11.50;;;8.17;;
9080;SDS011;13509;50.760;6.080;2023-06-01T13:39:41;13.17;;;7.50;;
9080;SDS011;13509;50.760;6.080;2023-06-01T13:42:10;16.53;;;8.23;;
9080;SDS011;13509;50.760;6.080;2023-06-01T13:44:38;14.10;;;7.50;;
9080;SDS011;13509;50.760;6.080;2023-06-01T13:47:11;13.90;;;7.57;;
9080;SDS011;13509;50.760;6.080;2023-06-01T13:49:41;12.40;;;7.37;;
9080;SDS011;13509;50.760;6.080;2023-06-01T13:52:09;10.23;;;6.77;;
9080;SDS011;13509;50.760;6.080;2023-06-01T13:54:37;10.83;;;6.90;;
9080;SDS011;13509;50.760;6.080;2023-06-01T13:57:07;11.97;;;6.93;;
9080;SDS011;13509;50.760;6.080;2023-06-01T13:59:36;11.50;;;6.90;;
9080;SDS011;13509;50.760;6.080;2023-06-01T14:02:04;11.23;;;6.23;;
9080;SDS011;13509;50.760;6.080;2023-06-01T14:04:35;7.77;;;5.83;;
9080;SDS011;13509;50.760;6.080;2023-06-01T14:07:03;12.27;;;6.97;;
9080;SDS011;13509;50.760;6.080;2023-06-01T14:09:31;12.40;;;7.23;;
9080;SDS011;13509;50.760;6.080;2023-06-01T14:12:00;13.87;;;6.30;;
9080;SDS011;13509;50.760;6.080;2023-06-01T14:14:29;12.67;;;7.13;;
9080;SDS011;13509;50.760;6.080;2023-06-01T14:16:58;15.20;;;7.53;;
9080;SDS011;13509;50.760;6.080;2023-06-01T14:19:26;13.43;;;8.10;;
9080;SDS011;13509;50.760;6.080;2023-06-01T14:21:54;12.80;;;7.20;;
9080;SDS011;13509;50.760;6.080;2023-06-01T14:24:23;12.33;;;7.23;;
9080;SDS011;13509;50.760;6.080;2023-06-01T14:26:51;11.83;;;8.17;;
9080;SDS011;13509;50.760;6.080;2023-06-01T14:29:19;13.87;;;8.23;;
9080;SDS011;13509;50.760;6.080;2023-06-01T14:31:49;15.13;;;7.70;;
9080;SDS011;13509;50.760;6.080;2023-06-01T14:34:18;13.30;;;7.63;;
9080;SDS011;13509;50.760;6.080;2023-06-01T14:36:46;12.50;;;6.63;;
9080;SDS011;13509;50.760;6.080;2023-06-01T14:39:14;11.20;;;6.20;;
9080;SDS011;13509;50.760;6.080;2023-06-01T14:41:42;13.97;;;6.50;;
9080;SDS011;13509;50.760;6.080;2023-06-01T14:44:11;12.00;;;6.73;;
9080;SDS011;13509;50.760;6.080;2023-06-01T14:46:40;12.20;;;6.67;;
9080;SDS011;13509;50.760;6.080;2023-06-01T14:49:10;14.73;;;6.03;;
9080;SDS011;13509;50.760;6.080;2023-06-01T14:51:38;12.40;;;6.60;;
9080;SDS011;13509;50.760;6.080;2023-06-01T14:54:06;12.17;;;6.50;;
9080;SDS011;13509;50.760;6.080;2023-06-01T14:56:34;12.07;;;5.97;;
9080;SDS011;13509;50.760;6.080;2023-06-01T14:59:03;12.13;;;5.67;;
9080;SDS011;13509;50.760;6.080;2023-06-01T15:01:31;14.80;;;6.33;;
9080;SDS011;13509;50.760;6.080;2023-06-01T15:03:59;13.20;;;6.07;;
9080;SDS011;13509;50.760;6.080;2023-06-01T15:06:29;13.20;;;6.00;;
9080;SDS011;13509;50.760;6.080;2023-06-01T15:08:57;9.73;;;6.53;;
9080;SDS011;13509;50.760;6.080;2023-06-01T15:11:26;8.67;;;6.47;;